Archival Weather

Granbury Rgnl

Granbury, Texas (KGDJ)

Report from: Monday, January 29, 2024 9:55 AM UTC
Current time: Tuesday, June 18, 2024 1:20 PM UTC

Current weather – Weather history – Daily summaries
Weather forecast

Temperature2.4°C (36.3°F)
Dew point1.3°C (34.3°F)
Winds Calm
Visibility10 mi. (16.1 km)
Clouds Sky clear
Altimeter30.35 in.Hg (1028 mB)
Relative humidity92 %
Density altitude-1,924 ft. (-587 m)
Remarks Fully automated report
Automated weather observing station with precipitation discriminator
Flight conditions Visual Meteorological Conditions
Raw dataKGDJ 290955Z AUTO 00000KT 10SM CLR 02/01 A3035 RMK AO2 T00240013
An error has occurred. This application may no longer respond until reloaded. Reload 🗙